Lemont Furnace, Pennsylvania
Current Conditions -  °F | °C
As of 4:53 PM on Sunday 25 Jan 2015 (Local Time) from KMGW Reporting Station
Drizzle Drizzle  
Wind Chill: 37°   Ceiling: 1800
Heat Index: 37°   Visibility: 2.5mi
Dew Point: 32°   Wind: 3mph
Humidity: 82%   Direction: 20°NNE
Pressure: 29.76"   Gusts: NA
Location:  39.91°N, 79.67°W
Report Text: KMGW 252153Z 02003KT 2 1/2SM -DZ BKN018 OVC028 03/00 A2976 RMK AO2 SLP088 P0000 T00280000
Loading
Personal Weather Stations






























Interactive Weather Map New forecast layout! Learn more

10-Day Weather Forecast

Advertisements
Track Severe Weather on mobile